createdAt,value
2022-12-01T00:00:10.155Z,45.78
2022-12-01T00:02:15.795Z,43.38
2022-12-01T00:04:22.872Z,44.33
2022-12-01T00:06:28.762Z,44.40
2022-12-01T00:08:36.787Z,42.90
2022-12-01T00:10:41.199Z,42.63
2022-12-01T00:12:46.724Z,39.30
2022-12-01T00:15:01.354Z,35.58
2022-12-01T00:17:07.866Z,37.78
2022-12-01T00:19:13.255Z,38.10
2022-12-01T00:21:18.719Z,36.65
2022-12-01T00:23:22.592Z,34.55
2022-12-01T00:25:28.495Z,32.45
2022-12-01T00:27:32.921Z,34.47
2022-12-01T00:29:37.084Z,34.85
2022-12-01T00:31:40.938Z,33.45
2022-12-01T00:33:44.845Z,32.63
2022-12-01T00:35:50.276Z,33.22
2022-12-01T00:37:54.308Z,34.25
2022-12-01T00:39:59.262Z,32.60
2022-12-01T00:42:05.426Z,33.85
2022-12-01T00:44:12.019Z,31.88
2022-12-01T00:46:16.032Z,33.15
2022-12-01T00:48:20.692Z,32.78
2022-12-01T00:50:25.404Z,34.03
2022-12-01T00:52:31.389Z,33.80
2022-12-01T00:54:35.795Z,33.80
2022-12-01T00:56:40.581Z,35.38
2022-12-01T00:58:44.819Z,32.55
2022-12-01T01:00:49.362Z,34.05
2022-12-01T01:02:54.232Z,32.88
2022-12-01T01:04:59.028Z,32.55
2022-12-01T01:07:03.712Z,31.00
2022-12-01T01:09:10.119Z,31.27
2022-12-01T01:11:14.528Z,32.50
2022-12-01T01:13:18.451Z,34.58
2022-12-01T01:15:22.609Z,33.72
2022-12-01T01:17:26.731Z,34.72
2022-12-01T01:19:31.203Z,34.78
2022-12-01T01:21:35.725Z,34.38
2022-12-01T01:23:40.388Z,33.78
2022-12-01T01:25:45.788Z,33.72
2022-12-01T01:27:50.861Z,34.80
2022-12-01T01:29:55.380Z,36.85
2022-12-01T01:32:00.033Z,37.45
2022-12-01T01:34:05.858Z,38.92
2022-12-01T01:36:10.405Z,40.00
2022-12-01T01:38:14.429Z,40.05
2022-12-01T01:40:19.297Z,39.38
2022-12-01T01:42:25.311Z,38.72
2022-12-01T01:44:50.824Z,38.03
2022-12-01T01:46:54.875Z,35.80
2022-12-01T01:49:03.270Z,34.67
2022-12-01T01:51:09.312Z,34.05
2022-12-01T01:53:16.980Z,34.15
2022-12-01T01:55:21.752Z,34.30
2022-12-01T01:57:30.214Z,33.67
2022-12-01T01:59:39.011Z,33.20
2022-12-01T02:01:43.378Z,32.33
2022-12-01T02:03:53.106Z,33.67
2022-12-01T02:06:04.882Z,34.22
2022-12-01T02:08:12.722Z,34.33
2022-12-01T02:10:23.058Z,32.22
2022-12-01T02:12:49.672Z,32.83
2022-12-01T02:15:14.935Z,31.05
2022-12-01T02:17:40.229Z,30.27
2022-12-01T02:20:14.834Z,30.30
2022-12-01T02:22:32.112Z,30.23
2022-12-01T02:24:55.502Z,30.88
2022-12-01T02:27:06.452Z,30.02
2022-12-01T02:29:45.123Z,28.45
2022-12-01T02:32:01.057Z,28.90
2022-12-01T02:34:14.898Z,27.33
2022-12-01T02:38:33.596Z,25.70
2022-12-01T02:40:43.560Z,27.08
2022-12-01T02:42:53.690Z,26.20
2022-12-01T02:45:00.918Z,26.35
2022-12-01T02:47:15.680Z,26.58
2022-12-01T02:49:27.749Z,28.35
2022-12-01T02:51:35.673Z,27.35
2022-12-01T02:53:40.470Z,28.30
2022-12-01T02:55:53.264Z,27.80
2022-12-01T02:57:57.693Z,25.95
2022-12-01T03:00:05.430Z,24.08
2022-12-01T03:02:19.306Z,24.67
2022-12-01T03:04:52.215Z,24.48
2022-12-01T03:07:07.245Z,22.08
2022-12-01T03:09:21.104Z,23.63
2022-12-01T03:11:34.103Z,24.35
2022-12-01T03:13:44.435Z,24.73
2022-12-01T03:16:00.660Z,23.98
2022-12-01T03:18:15.977Z,24.50
2022-12-01T03:20:25.629Z,23.27
2022-12-01T03:22:40.446Z,23.40
2022-12-01T03:24:50.161Z,23.65
2022-12-01T03:26:58.508Z,22.83
2022-12-01T03:29:08.757Z,21.08
2022-12-01T03:31:18.953Z,21.45
2022-12-01T03:33:29.570Z,22.17
2022-12-01T03:35:38.287Z,21.17
2022-12-01T03:37:47.213Z,22.70
2022-12-01T03:40:00.655Z,23.40
2022-12-01T03:42:12.288Z,21.45
2022-12-01T03:44:22.047Z,21.73
2022-12-01T03:46:36.755Z,22.00
2022-12-01T03:48:43.553Z,21.73
2022-12-01T03:50:58.884Z,21.98
2022-12-01T03:53:12.476Z,20.77
2022-12-01T03:55:23.089Z,20.90
2022-12-01T03:57:31.964Z,20.95
2022-12-01T03:59:39.639Z,21.75
2022-12-01T04:01:43.494Z,19.38
2022-12-01T04:03:49.833Z,20.77
2022-12-01T04:05:54.129Z,19.60
2022-12-01T04:07:58.491Z,20.92
2022-12-01T04:10:02.548Z,20.50
2022-12-01T04:12:24.378Z,19.65
2022-12-01T04:14:28.161Z,18.25
2022-12-01T04:16:31.863Z,17.92
2022-12-01T04:18:36.232Z,17.52
2022-12-01T04:20:43.669Z,18.60
2022-12-01T04:22:47.810Z,17.50
2022-12-01T04:24:52.716Z,16.98
2022-12-01T04:26:56.842Z,16.88
2022-12-01T04:29:04.161Z,17.35
2022-12-01T04:31:08.526Z,17.20
2022-12-01T04:33:15.626Z,17.38
2022-12-01T04:35:20.195Z,16.10
2022-12-01T04:37:26.658Z,17.75
2022-12-01T04:39:33.669Z,17.73
2022-12-01T04:41:38.243Z,17.88
2022-12-01T04:43:46.351Z,16.70
2022-12-01T04:45:51.332Z,15.73
2022-12-01T04:47:56.973Z,15.55
2022-12-01T04:50:00.999Z,14.73
2022-12-01T04:52:06.438Z,14.30
2022-12-01T04:54:14.252Z,14.43
2022-12-01T04:56:20.685Z,14.57
2022-12-01T04:58:24.790Z,9.20
2022-12-01T05:00:28.830Z,10.88
2022-12-01T05:02:34.134Z,11.90
2022-12-01T05:04:42.700Z,8.35
2022-12-01T05:06:46.953Z,9.18
2022-12-01T05:08:52.547Z,9.07
2022-12-01T05:10:59.350Z,9.60
2022-12-01T05:13:05.476Z,10.02
2022-12-01T05:15:10.788Z,12.30
2022-12-01T05:17:15.634Z,12.45
2022-12-01T05:19:38.557Z,13.00
2022-12-01T05:21:45.001Z,11.95
2022-12-01T05:23:49.052Z,11.48
2022-12-01T05:25:53.362Z,11.07
2022-12-01T05:27:58.722Z,11.55
2022-12-01T05:30:04.051Z,11.23
2022-12-01T05:32:09.162Z,11.43
2022-12-01T05:34:14.733Z,10.98
2022-12-01T05:36:19.861Z,11.38
2022-12-01T05:38:25.250Z,10.82
2022-12-01T05:40:31.132Z,10.82
2022-12-01T05:42:36.673Z,10.50
2022-12-01T05:44:42.243Z,11.32
2022-12-01T05:46:46.936Z,10.70
2022-12-01T05:48:50.535Z,11.55
2022-12-01T05:50:54.244Z,10.00
2022-12-01T05:52:58.130Z,10.15
2022-12-01T05:55:02.128Z,11.05
2022-12-01T05:57:05.449Z,9.52
2022-12-01T05:59:08.744Z,10.07
2022-12-01T06:01:13.588Z,9.93
2022-12-01T06:03:16.941Z,9.73
2022-12-01T06:05:20.743Z,25.85
2022-12-01T06:07:26.162Z,15.40
2022-12-01T06:09:29.777Z,11.38
2022-12-01T06:11:33.250Z,10.60
2022-12-01T06:13:36.968Z,10.52
2022-12-01T06:15:40.729Z,9.73
2022-12-01T06:17:45.677Z,9.63
2022-12-01T06:19:49.312Z,9.50
2022-12-01T06:21:52.980Z,10.52
2022-12-01T06:23:56.784Z,9.82
2022-12-01T06:26:00.696Z,10.05
2022-12-01T06:28:04.305Z,10.23
2022-12-01T06:30:09.236Z,9.50
2022-12-01T06:32:12.918Z,10.38
2022-12-01T06:34:18.255Z,10.32
2022-12-01T06:36:21.870Z,10.50
2022-12-01T06:38:25.260Z,10.10
2022-12-01T06:40:29.478Z,10.10
2022-12-01T06:42:34.083Z,10.10
2022-12-01T06:44:37.571Z,10.70
2022-12-01T06:46:41.498Z,10.55
2022-12-01T06:48:45.524Z,9.77
2022-12-01T06:50:52.971Z,11.40
2022-12-01T06:52:59.294Z,11.15
2022-12-01T06:55:04.299Z,10.57
2022-12-01T06:57:08.585Z,11.73
2022-12-01T06:59:12.803Z,9.55
2022-12-01T07:01:17.380Z,8.95
2022-12-01T07:03:20.949Z,8.98
2022-12-01T07:05:24.788Z,9.05
2022-12-01T07:07:29.763Z,9.73
2022-12-01T07:09:33.153Z,8.98
2022-12-01T07:11:37.055Z,8.07
2022-12-01T07:13:41.307Z,9.00
2022-12-01T07:15:44.958Z,9.10
2022-12-01T07:17:48.321Z,8.65
2022-12-01T07:19:52.215Z,8.90
2022-12-01T07:21:55.880Z,9.82
2022-12-01T07:24:01.622Z,9.35
2022-12-01T07:26:07.201Z,9.27
2022-12-01T07:28:10.636Z,9.63
2022-12-01T07:30:14.754Z,9.15
2022-12-01T07:32:18.179Z,9.82
2022-12-01T07:34:21.556Z,9.75
2022-12-01T07:36:25.004Z,9.38
2022-12-01T07:38:30.101Z,9.82
2022-12-01T07:40:35.233Z,9.65
2022-12-01T07:42:41.953Z,8.43
2022-12-01T07:44:45.400Z,8.38
2022-12-01T07:46:48.986Z,8.30
2022-12-01T07:48:53.153Z,9.30
2022-12-01T07:50:57.617Z,8.95
2022-12-01T07:53:01.164Z,9.02
2022-12-01T07:55:05.075Z,8.30
2022-12-01T07:57:09.829Z,8.20
2022-12-01T07:59:13.318Z,8.77
2022-12-01T08:01:18.719Z,8.70
2022-12-01T08:03:22.394Z,9.00
2022-12-01T08:05:25.779Z,8.50
2022-12-01T08:07:30.106Z,7.78
2022-12-01T08:09:33.547Z,7.82
2022-12-01T08:11:36.891Z,8.32
2022-12-01T08:13:42.558Z,7.70
2022-12-01T08:15:46.152Z,8.18
2022-12-01T08:17:49.504Z,39.67
2022-12-01T08:19:52.816Z,50.63
2022-12-01T08:21:56.410Z,35.80
2022-12-01T08:24:00.513Z,38.38
2022-12-01T08:26:04.579Z,24.40
2022-12-01T08:28:08.946Z,25.45
2022-12-01T08:30:16.836Z,27.25
2022-12-01T08:32:22.158Z,28.48
2022-12-01T08:34:25.938Z,19.17
2022-12-01T08:36:29.779Z,19.30
2022-12-01T08:38:33.883Z,20.15
2022-12-01T08:40:38.315Z,17.88
2022-12-01T08:42:42.092Z,17.15
2022-12-01T08:44:45.970Z,15.10
2022-12-01T08:46:51.382Z,14.52
2022-12-01T08:48:58.007Z,15.10
2022-12-01T08:51:10.707Z,13.07
2022-12-01T08:53:14.963Z,10.77
2022-12-01T08:55:18.743Z,10.82
2022-12-01T08:57:22.371Z,12.40
2022-12-01T08:59:26.127Z,11.48
2022-12-01T09:01:30.508Z,13.10
2022-12-01T09:03:36.632Z,10.68
2022-12-01T09:05:40.604Z,11.43
2022-12-01T09:07:45.723Z,11.27
2022-12-01T09:09:49.667Z,10.13
2022-12-01T09:11:53.795Z,10.38
2022-12-01T09:13:57.367Z,9.57
2022-12-01T09:16:03.543Z,10.23
2022-12-01T09:18:07.338Z,10.50
2022-12-01T09:20:13.904Z,10.90
2022-12-01T09:22:17.375Z,11.10
2022-12-01T09:24:20.900Z,9.60
2022-12-01T09:26:25.039Z,9.40
2022-12-01T09:28:28.732Z,10.45
2022-12-01T09:30:32.645Z,9.18
2022-12-01T09:32:36.173Z,8.57
2022-12-01T09:34:39.926Z,7.05
2022-12-01T09:36:45.250Z,5.63
2022-12-01T09:38:49.180Z,7.30
2022-12-01T09:40:53.746Z,7.20
2022-12-01T09:42:58.073Z,4.75
2022-12-01T09:45:04.534Z,4.93
2022-12-01T09:47:19.436Z,5.20
2022-12-01T09:49:26.881Z,4.70
2022-12-01T09:51:34.930Z,5.45
2022-12-01T09:53:39.959Z,23.17
2022-12-01T09:55:44.542Z,20.40
2022-12-01T09:57:50.176Z,17.35
2022-12-01T09:59:55.214Z,15.90
2022-12-01T10:02:03.195Z,23.35
2022-12-01T10:04:12.460Z,17.60
2022-12-01T10:06:28.811Z,13.77
2022-12-01T10:08:38.582Z,9.30
2022-12-01T10:10:48.536Z,12.63
2022-12-01T10:12:52.206Z,10.35
2022-12-01T10:15:02.286Z,7.80
2022-12-01T10:17:23.005Z,7.63
2022-12-01T10:19:35.282Z,7.07
2022-12-01T10:21:53.687Z,8.80
2022-12-01T10:24:23.980Z,8.70
2022-12-01T10:26:36.539Z,7.60
2022-12-01T10:29:01.677Z,6.22
2022-12-01T10:31:15.646Z,6.00
2022-12-01T10:33:25.531Z,6.05
2022-12-01T10:35:36.193Z,5.05
2022-12-01T10:37:40.391Z,5.03
2022-12-01T10:39:46.660Z,5.00
2022-12-01T10:41:52.301Z,5.90
2022-12-01T10:44:01.250Z,5.80
2022-12-01T10:46:23.005Z,5.15
2022-12-01T10:48:26.449Z,5.32
2022-12-01T10:50:30.187Z,5.65
2022-12-01T10:52:39.596Z,5.88
2022-12-01T10:54:43.290Z,4.65
2022-12-01T10:56:50.178Z,4.25
2022-12-01T10:58:57.382Z,3.22
2022-12-01T11:01:04.743Z,3.08
2022-12-01T11:03:08.653Z,2.63
2022-12-01T11:05:25.266Z,2.15
2022-12-01T11:07:31.724Z,2.30
2022-12-01T11:09:36.290Z,2.60
2022-12-01T11:11:41.750Z,2.10
2022-12-01T11:13:45.497Z,2.80
2022-12-01T11:15:53.647Z,2.38
2022-12-01T11:18:01.654Z,2.65
2022-12-01T11:20:28.963Z,2.83
2022-12-01T11:22:33.459Z,2.47
2022-12-01T11:24:43.208Z,2.58
2022-12-01T11:26:46.974Z,2.70
2022-12-01T11:28:56.148Z,2.40
2022-12-01T11:31:05.239Z,2.58
2022-12-01T11:33:08.925Z,3.25
2022-12-01T11:35:21.192Z,2.30
2022-12-01T11:37:29.047Z,2.28
2022-12-01T11:39:35.690Z,2.28
2022-12-01T11:41:42.916Z,2.15
2022-12-01T11:44:00.822Z,2.47
2022-12-01T11:46:09.585Z,2.30
2022-12-01T11:48:26.316Z,2.45
2022-12-01T11:50:32.510Z,2.22
2022-12-01T11:52:46.753Z,5.75
2022-12-01T11:54:57.897Z,3.38
2022-12-01T11:59:28.228Z,2.50
2022-12-01T12:01:42.000Z,2.42
2022-12-01T12:03:56.081Z,2.70
2022-12-01T12:08:56.962Z,2.42
2022-12-01T12:11:08.155Z,2.60
2022-12-01T12:13:33.484Z,2.70
2022-12-01T12:18:25.289Z,2.60
2022-12-01T12:20:53.296Z,3.13
2022-12-01T12:23:07.427Z,2.78
2022-12-01T12:25:26.653Z,3.08
2022-12-01T12:27:40.937Z,3.20
2022-12-01T12:30:01.062Z,2.88
2022-12-01T12:32:17.254Z,2.85
2022-12-01T12:34:32.655Z,2.85
2022-12-01T12:36:45.763Z,2.95
2022-12-01T12:39:04.190Z,3.40
2022-12-01T12:41:20.226Z,3.17
2022-12-01T12:43:30.568Z,3.92
2022-12-01T12:45:48.353Z,3.35
2022-12-01T12:48:10.252Z,3.50
2022-12-01T12:50:27.316Z,2.80
2022-12-01T12:52:34.941Z,3.15
2022-12-01T12:54:46.627Z,3.50
2022-12-01T12:56:55.687Z,3.75
2022-12-01T12:59:04.367Z,3.08
2022-12-01T13:01:13.881Z,3.55
2022-12-01T13:03:29.227Z,3.30
2022-12-01T13:05:42.187Z,3.80
2022-12-01T13:07:57.713Z,3.40
2022-12-01T13:10:08.486Z,3.75
2022-12-01T13:12:16.389Z,3.88
2022-12-01T13:14:27.083Z,3.33
2022-12-01T13:16:35.825Z,3.05
2022-12-01T13:18:43.227Z,2.70
2022-12-01T13:20:49.072Z,3.38
2022-12-01T13:22:54.046Z,3.08
2022-12-01T13:24:57.700Z,2.60
2022-12-01T13:27:06.979Z,3.00
2022-12-01T13:29:16.459Z,3.45
2022-12-01T13:31:22.343Z,3.25
2022-12-01T13:33:26.088Z,2.97
2022-12-01T13:35:32.735Z,3.10
2022-12-01T13:37:40.617Z,3.20
2022-12-01T13:39:46.714Z,3.40
2022-12-01T13:42:01.602Z,3.00
2022-12-01T13:44:08.424Z,3.33
2022-12-01T13:46:23.865Z,3.55
2022-12-01T13:48:30.969Z,3.47
2022-12-01T13:51:05.251Z,3.55
2022-12-01T13:53:14.885Z,3.38
2022-12-01T13:55:31.154Z,2.85
2022-12-01T13:57:37.050Z,3.17
2022-12-01T14:00:06.922Z,2.80
2022-12-01T14:02:22.364Z,2.85
2022-12-01T14:04:31.515Z,2.97
2022-12-01T14:06:46.434Z,3.05
2022-12-01T14:08:54.258Z,3.78
2022-12-01T14:10:59.880Z,3.42
2022-12-01T14:13:06.153Z,2.83
2022-12-01T14:15:29.230Z,2.63
2022-12-01T14:17:35.452Z,3.10
2022-12-01T14:19:46.716Z,3.05
2022-12-01T14:21:50.928Z,2.75
2022-12-01T14:24:04.678Z,3.40
2022-12-01T14:26:18.334Z,3.20
2022-12-01T14:29:00.239Z,3.35
2022-12-01T14:31:07.462Z,4.32
2022-12-01T14:33:46.405Z,2.90
2022-12-01T14:35:50.766Z,3.50
2022-12-01T14:37:54.513Z,3.65
2022-12-01T14:40:08.977Z,6.55
2022-12-01T14:42:54.718Z,4.25
2022-12-01T14:44:59.004Z,3.80
2022-12-01T14:47:08.768Z,3.20
2022-12-01T14:49:18.027Z,4.45
2022-12-01T14:51:29.459Z,3.53
2022-12-01T14:53:39.336Z,3.67
2022-12-01T14:55:52.198Z,3.70
2022-12-01T14:58:06.547Z,3.20
2022-12-01T15:00:16.507Z,3.65
2022-12-01T15:02:20.857Z,2.95
2022-12-01T15:04:25.713Z,2.85
2022-12-01T15:06:31.909Z,3.13
2022-12-01T15:08:49.410Z,3.35
2022-12-01T15:11:04.220Z,2.80
2022-12-01T15:13:24.309Z,3.28
2022-12-01T15:15:28.902Z,4.07
2022-12-01T15:17:35.017Z,3.40
2022-12-01T15:19:41.487Z,3.30
2022-12-01T15:21:48.364Z,3.65
2022-12-01T15:23:57.301Z,3.00
2022-12-01T15:26:02.954Z,3.30
2022-12-01T15:28:15.439Z,2.58
2022-12-01T15:30:19.843Z,3.15
2022-12-01T15:32:26.036Z,2.92
2022-12-01T15:34:34.323Z,2.92
2022-12-01T15:36:39.832Z,2.60
2022-12-01T15:38:45.976Z,3.92
2022-12-01T15:41:20.983Z,3.05
2022-12-01T15:43:20.686Z,2.65
2022-12-01T15:45:26.828Z,4.22
2022-12-01T15:47:37.305Z,3.63
2022-12-01T15:49:50.780Z,4.20
2022-12-01T15:51:55.793Z,4.43
2022-12-01T15:54:01.563Z,4.00
2022-12-01T15:56:08.518Z,4.72
2022-12-01T15:58:23.000Z,4.78
2022-12-01T16:00:27.677Z,5.18
2022-12-01T16:02:33.545Z,5.07
2022-12-01T16:04:41.878Z,4.13
2022-12-01T16:06:57.379Z,4.43
2022-12-01T16:09:05.005Z,4.97
2022-12-01T16:11:12.653Z,5.57
2022-12-01T16:13:41.778Z,6.55
2022-12-01T16:15:45.781Z,7.82
2022-12-01T16:17:51.525Z,5.55
2022-12-01T16:20:18.344Z,5.53
2022-12-01T16:22:23.931Z,5.53
2022-12-01T16:24:31.995Z,5.13
2022-12-01T16:26:36.054Z,5.15
2022-12-01T16:28:42.667Z,5.38
2022-12-01T16:30:46.690Z,3.00
2022-12-01T16:32:50.864Z,3.60
2022-12-01T16:34:55.456Z,4.35
2022-12-01T16:36:59.254Z,5.53
2022-12-01T16:39:08.475Z,4.05
2022-12-01T16:41:19.866Z,4.50
2022-12-01T16:43:25.118Z,4.93
2022-12-01T16:45:30.169Z,4.57
2022-12-01T16:47:34.505Z,6.50
2022-12-01T16:49:38.234Z,6.60
2022-12-01T16:51:55.300Z,6.85
2022-12-01T16:54:01.568Z,5.95
2022-12-01T16:56:07.068Z,5.57
2022-12-01T16:58:11.300Z,5.72
2022-12-01T17:00:16.595Z,5.03
2022-12-01T17:02:22.380Z,4.75
2022-12-01T17:04:26.414Z,8.57
2022-12-01T17:06:30.182Z,6.28
2022-12-01T17:08:34.529Z,9.43
2022-12-01T17:10:41.175Z,8.93
2022-12-01T17:12:45.669Z,5.65
2022-12-01T17:14:50.004Z,7.13
2022-12-01T17:16:53.934Z,5.25
2022-12-01T17:19:01.165Z,5.13
2022-12-01T17:21:07.383Z,5.10
2022-12-01T17:23:11.046Z,5.07
2022-12-01T17:25:15.039Z,5.30
2022-12-01T17:27:18.793Z,6.43
2022-12-01T17:29:22.422Z,7.10
2022-12-01T17:31:26.395Z,8.38
2022-12-01T17:33:30.207Z,10.00
2022-12-01T17:35:35.396Z,7.88
2022-12-01T17:37:39.019Z,7.28
2022-12-01T17:39:42.843Z,6.22
2022-12-01T17:41:46.653Z,5.85
2022-12-01T17:43:50.370Z,5.93
2022-12-01T17:45:53.917Z,5.78
2022-12-01T17:47:57.563Z,6.30
2022-12-01T17:50:01.353Z,7.82
2022-12-01T17:52:07.057Z,8.50
2022-12-01T17:54:11.073Z,11.30
2022-12-01T17:56:17.634Z,8.85
2022-12-01T17:58:21.772Z,12.52
2022-12-01T18:00:25.684Z,8.85
2022-12-01T18:02:29.803Z,11.40
2022-12-01T18:04:35.351Z,13.10
2022-12-01T18:06:39.512Z,48.60
2022-12-01T18:08:44.984Z,11.73
2022-12-01T18:10:48.808Z,16.85
2022-12-01T18:12:52.812Z,11.30
2022-12-01T18:14:56.704Z,20.58
2022-12-01T18:17:00.212Z,12.90
2022-12-01T18:19:04.508Z,17.02
2022-12-01T18:21:09.695Z,19.90
2022-12-01T18:23:14.590Z,53.60
2022-12-01T18:25:19.820Z,66.93
2022-12-01T18:27:23.802Z,19.17
2022-12-01T18:29:28.946Z,19.67
2022-12-01T18:31:33.470Z,22.38
2022-12-01T18:33:39.319Z,17.85
2022-12-01T18:35:45.009Z,23.70
2022-12-01T18:37:49.046Z,21.00
2022-12-01T18:39:53.393Z,15.98
2022-12-01T18:41:59.361Z,18.70
2022-12-01T18:44:04.457Z,20.50
2022-12-01T18:46:10.161Z,20.98
2022-12-01T18:48:15.642Z,19.63
2022-12-01T18:50:20.074Z,22.55
2022-12-01T18:52:24.686Z,22.38
2022-12-01T18:54:29.747Z,20.02
2022-12-01T18:56:34.052Z,24.40
2022-12-01T18:58:40.832Z,20.48
2022-12-01T19:00:44.778Z,17.92
2022-12-01T19:02:49.057Z,13.40
2022-12-01T19:04:53.694Z,17.10
2022-12-01T19:06:58.288Z,15.80
2022-12-01T19:09:04.469Z,15.68
2022-12-01T19:11:09.776Z,17.58
2022-12-01T19:13:14.036Z,16.35
2022-12-01T19:15:20.903Z,16.80
2022-12-01T19:17:24.571Z,21.30
2022-12-01T19:19:30.835Z,17.85
2022-12-01T19:21:37.469Z,18.20
2022-12-01T19:23:42.171Z,18.52
2022-12-01T19:25:46.518Z,22.90
2022-12-01T19:27:51.610Z,18.45
2022-12-01T19:29:55.923Z,16.48
2022-12-01T19:32:01.851Z,17.08
2022-12-01T19:34:05.871Z,17.55
2022-12-01T19:36:12.905Z,17.77
2022-12-01T19:38:18.154Z,19.90
2022-12-01T19:40:22.676Z,18.35
2022-12-01T19:42:27.297Z,19.02
2022-12-01T19:44:31.826Z,20.05
2022-12-01T19:46:36.013Z,21.80
2022-12-01T19:48:42.224Z,20.20
2022-12-01T19:50:46.733Z,30.98
2022-12-01T19:52:51.859Z,23.75
2022-12-01T19:54:56.960Z,26.40
2022-12-01T19:57:01.235Z,28.15
2022-12-01T19:59:08.451Z,28.92
2022-12-01T20:01:16.064Z,36.03
2022-12-01T20:03:20.772Z,31.80
2022-12-01T20:05:26.563Z,39.33
2022-12-01T20:07:32.551Z,32.20
2022-12-01T20:09:36.930Z,29.60
2022-12-01T20:11:41.880Z,31.33
2022-12-01T20:13:47.108Z,28.50
2022-12-01T20:15:51.526Z,28.10
2022-12-01T20:17:56.685Z,27.58
2022-12-01T20:20:02.255Z,29.63
2022-12-01T20:22:07.949Z,28.92
2022-12-01T20:24:15.242Z,27.55
2022-12-01T20:26:23.872Z,26.85
2022-12-01T20:28:30.372Z,28.50
2022-12-01T20:30:34.448Z,26.38
2022-12-01T20:32:38.509Z,27.80
2022-12-01T20:34:42.235Z,18.55
2022-12-01T20:36:47.467Z,17.90
2022-12-01T20:38:53.196Z,19.50
2022-12-01T20:40:57.446Z,28.80
2022-12-01T20:43:02.755Z,19.15
2022-12-01T20:45:07.989Z,17.45
2022-12-01T20:47:12.134Z,14.80
2022-12-01T20:49:17.751Z,14.90
2022-12-01T20:51:21.653Z,33.88
2022-12-01T20:53:25.646Z,14.88
2022-12-01T20:55:31.036Z,14.95
2022-12-01T20:57:34.872Z,15.57
2022-12-01T20:59:39.469Z,15.13
2022-12-01T21:01:43.568Z,14.05
2022-12-01T21:03:47.979Z,13.93
2022-12-01T21:05:51.765Z,13.00
2022-12-01T21:07:56.628Z,14.75
2022-12-01T21:10:00.912Z,17.17
2022-12-01T21:12:31.430Z,17.77
2022-12-01T21:14:40.683Z,14.00
2022-12-01T21:16:52.076Z,18.45
2022-12-01T21:19:00.490Z,14.73
2022-12-01T21:21:11.829Z,15.48
2022-12-01T21:23:18.621Z,15.77
2022-12-01T21:25:27.507Z,15.98
2022-12-01T21:27:33.312Z,17.60
2022-12-01T21:29:41.704Z,18.48
2022-12-01T21:31:46.309Z,21.13
2022-12-01T21:33:53.083Z,25.58
2022-12-01T21:36:01.397Z,25.10
2022-12-01T21:38:20.449Z,22.90
2022-12-01T21:40:28.776Z,23.25
2022-12-01T21:42:35.762Z,22.35
2022-12-01T21:44:40.578Z,19.40
2022-12-01T21:46:48.561Z,16.60
2022-12-01T21:48:55.918Z,17.05
2022-12-01T21:51:03.541Z,16.35
2022-12-01T21:53:15.304Z,16.58
2022-12-01T21:55:44.718Z,16.75
2022-12-01T21:57:53.399Z,13.85
2022-12-01T22:00:08.719Z,27.95
2022-12-01T22:02:33.222Z,16.38
2022-12-01T22:04:38.991Z,15.40
2022-12-01T22:06:48.528Z,16.80
2022-12-01T22:08:56.120Z,17.17
2022-12-01T22:11:06.153Z,16.42
2022-12-01T22:13:16.312Z,20.10
2022-12-01T22:15:41.551Z,18.42
2022-12-01T22:17:47.074Z,15.15
2022-12-01T22:19:58.253Z,25.52
2022-12-01T22:22:21.990Z,20.10
2022-12-01T22:26:31.643Z,12.23
2022-12-01T22:28:38.155Z,12.75
2022-12-01T22:30:44.837Z,17.15
2022-12-01T22:32:57.579Z,18.05
2022-12-01T22:35:20.644Z,12.02
2022-12-01T22:37:34.760Z,13.93
2022-12-01T22:39:42.889Z,10.20
2022-12-01T22:41:50.379Z,8.10
2022-12-01T22:44:02.681Z,10.43
2022-12-01T22:46:25.091Z,9.43
2022-12-01T22:48:38.167Z,9.15
2022-12-01T22:50:51.356Z,9.63
2022-12-01T22:53:03.129Z,8.40
2022-12-01T22:55:18.160Z,9.55
2022-12-01T22:57:37.546Z,8.80
2022-12-01T22:59:48.377Z,9.88
2022-12-01T23:01:57.414Z,8.95
2022-12-01T23:04:18.749Z,10.00
2022-12-01T23:06:57.032Z,7.75
2022-12-01T23:09:02.144Z,7.78
2022-12-01T23:11:15.272Z,6.38
2022-12-01T23:13:23.772Z,5.70
2022-12-01T23:15:37.160Z,5.35
2022-12-01T23:17:42.421Z,4.90
2022-12-01T23:19:50.159Z,4.63
2022-12-01T23:21:58.168Z,4.07
2022-12-01T23:24:04.849Z,5.20
2022-12-01T23:26:12.719Z,5.38
2022-12-01T23:28:21.866Z,5.10
2022-12-01T23:30:27.105Z,6.28
2022-12-01T23:32:32.864Z,5.85
2022-12-01T23:34:38.107Z,5.40
2022-12-01T23:36:43.218Z,5.50
2022-12-01T23:38:51.009Z,5.50
2022-12-01T23:40:59.441Z,5.60
2022-12-01T23:43:13.952Z,5.88
2022-12-01T23:45:21.787Z,5.63
2022-12-01T23:47:30.436Z,5.78
2022-12-01T23:49:40.878Z,5.03
2022-12-01T23:51:50.039Z,5.18
2022-12-01T23:53:56.222Z,4.57
2022-12-01T23:56:07.653Z,4.60
2022-12-01T23:58:18.364Z,4.75
